Malahat, British Columbia

4:53 AM PST on December 08, 2016 (GMT -0800)
Highlands-West | | Change Station

Elev 738 ft 48.51 °N, 123.51 °W | Updated 8 seconds ago

Partly Cloudy
Partly Cloudy
23.9 °F
Feels Like 24 °F
N
0.9
Wind Variable Wind from WNW
Gusts 2.0 mph

Today
High -- | Low -- °F
--% Chance of Precip.
Yesterday
High -- | Low -- °F
Precip. -- in
Pressure 30.27 in
Visibility 30.0 miles
Clouds Few 24000 ft
Windchill 24 °F
Dew Point 21 °F
Humidity 88%
Rainfall 0.00 in
Snow Depth Not available.
7:53 AM 4:18 PM
Waxing Gibbous, 63% visible
METAR CYYJ 081200Z 06014G21KT 30SM FEW240 M01/M07 A3025 RMK CS2 /SNSHN077/ SLP248
Pressure 30.27 in
Visibility 30.0 miles
Clouds Few 24000 ft
Windchill 24 °F
Dew Point 21 °F
Humidity 88%
Rainfall 0.00 in
Snow Depth Not available.
7:53 AM 4:18 PM
Waxing Gibbous, 63% visible
METAR CYYJ 081200Z 06014G21KT 30SM FEW240 M01/M07 A3025 RMK CS2 /SNSHN077/ SLP248

10-Day Weather Forecast

Almanac

Astronomy

Dec. 08, 2016 Rise Set
Actual Time
Civil Twilight
Nautical Twilight
Astronomical Twilight
Moon
Length of Visible Light
Length of Day
Tomorrow will be .
, % of the Moon is Illuminated

Today's Extremes

Country Highs Country Lows

Community

WunderPhotos

Upload Photos

1,956,267 photos uploaded!

WunderBlog® & News

Nearby

Air Quality

  Air Quality AQ Index Pollutant
Not available.

Snow Depth

Station Depth Elevation

Earthquake Activity

City Distance Mag. Time & Date
Minimum magnitude displayed is 2.5.

Coastal Water Temperatures

Place Temperature

Stations

Nearby Weather Stations

Station Location Temp. Windchill Dew Point Humidity Wind Precip. Elev Updated Type
                   

Watches & Warnings

There are currently no watches in effect.